sensor_id;sensor_type;location;lat;lon;timestamp;P1;durP1;ratioP1;P2;durP2;ratioP2
62574;SDS011;53112;45.602;11.904;2022-09-30T00:01:43;3.22;;;2.10;;
62574;SDS011;53112;45.602;11.904;2022-09-30T00:04:31;2.95;;;2.28;;
62574;SDS011;53112;45.602;11.904;2022-09-30T00:06:56;2.10;;;1.90;;
62574;SDS011;53112;45.602;11.904;2022-09-30T00:09:22;3.92;;;2.28;;
62574;SDS011;53112;45.602;11.904;2022-09-30T00:11:48;3.17;;;2.20;;
62574;SDS011;53112;45.602;11.904;2022-09-30T00:14:16;3.22;;;2.28;;
62574;SDS011;53112;45.602;11.904;2022-09-30T00:16:44;2.33;;;2.13;;
62574;SDS011;53112;45.602;11.904;2022-09-30T00:19:11;2.45;;;1.98;;
62574;SDS011;53112;45.602;11.904;2022-09-30T00:21:37;2.72;;;2.33;;
62574;SDS011;53112;45.602;11.904;2022-09-30T00:24:04;2.30;;;2.10;;
62574;SDS011;53112;45.602;11.904;2022-09-30T00:26:31;2.38;;;2.13;;
62574;SDS011;53112;45.602;11.904;2022-09-30T00:28:58;3.45;;;2.00;;
62574;SDS011;53112;45.602;11.904;2022-09-30T00:31:26;3.97;;;2.20;;
62574;SDS011;53112;45.602;11.904;2022-09-30T00:33:54;2.30;;;2.10;;
62574;SDS011;53112;45.602;11.904;2022-09-30T00:39:14;4.30;;;2.38;;
62574;SDS011;53112;45.602;11.904;2022-09-30T00:41:41;2.58;;;2.10;;
62574;SDS011;53112;45.602;11.904;2022-09-30T00:50:02;3.15;;;2.00;;
62574;SDS011;53112;45.602;11.904;2022-09-30T00:52:51;2.83;;;2.08;;
62574;SDS011;53112;45.602;11.904;2022-09-30T00:55:28;2.30;;;2.10;;
62574;SDS011;53112;45.602;11.904;2022-09-30T00:57:59;2.85;;;2.22;;
62574;SDS011;53112;45.602;11.904;2022-09-30T01:00:27;2.67;;;2.20;;
62574;SDS011;53112;45.602;11.904;2022-09-30T01:02:53;2.30;;;2.10;;
62574;SDS011;53112;45.602;11.904;2022-09-30T01:05:20;3.45;;;2.10;;
62574;SDS011;53112;45.602;11.904;2022-09-30T01:07:49;4.55;;;2.50;;
62574;SDS011;53112;45.602;11.904;2022-09-30T01:10:16;4.93;;;2.50;;
62574;SDS011;53112;45.602;11.904;2022-09-30T01:12:42;3.67;;;2.55;;
62574;SDS011;53112;45.602;11.904;2022-09-30T01:15:08;4.00;;;2.78;;
62574;SDS011;53112;45.602;11.904;2022-09-30T01:28:21;4.00;;;2.47;;
62574;SDS011;53112;45.602;11.904;2022-09-30T01:31:13;3.72;;;2.20;;
62574;SDS011;53112;45.602;11.904;2022-09-30T01:36:33;4.47;;;2.80;;
62574;SDS011;53112;45.602;11.904;2022-09-30T01:44:46;5.00;;;2.85;;
62574;SDS011;53112;45.602;11.904;2022-09-30T01:47:24;5.65;;;3.20;;
62574;SDS011;53112;45.602;11.904;2022-09-30T01:50:02;3.90;;;2.80;;
62574;SDS011;53112;45.602;11.904;2022-09-30T01:55:17;4.43;;;3.00;;
62574;SDS011;53112;45.602;11.904;2022-09-30T01:57:55;4.30;;;3.00;;
62574;SDS011;53112;45.602;11.904;2022-09-30T02:00:38;4.80;;;3.05;;
62574;SDS011;53112;45.602;11.904;2022-09-30T02:03:08;5.63;;;3.47;;
62574;SDS011;53112;45.602;11.904;2022-09-30T02:05:53;4.82;;;3.35;;
62574;SDS011;53112;45.602;11.904;2022-09-30T02:09:19;7.18;;;3.38;;
62574;SDS011;53112;45.602;11.904;2022-09-30T02:11:26;5.40;;;3.20;;
62574;SDS011;53112;45.602;11.904;2022-09-30T02:16:59;5.10;;;3.53;;
62574;SDS011;53112;45.602;11.904;2022-09-30T02:19:41;8.18;;;3.90;;
62574;SDS011;53112;45.602;11.904;2022-09-30T02:22:24;5.45;;;3.70;;
62574;SDS011;53112;45.602;11.904;2022-09-30T02:24:58;6.35;;;3.50;;
62574;SDS011;53112;45.602;11.904;2022-09-30T02:27:32;6.57;;;3.45;;
62574;SDS011;53112;45.602;11.904;2022-09-30T02:30:10;4.82;;;2.85;;
62574;SDS011;53112;45.602;11.904;2022-09-30T02:32:45;4.43;;;2.90;;
62574;SDS011;53112;45.602;11.904;2022-09-30T02:35:26;4.82;;;2.80;;
62574;SDS011;53112;45.602;11.904;2022-09-30T02:43:03;3.80;;;2.90;;
62574;SDS011;53112;45.602;11.904;2022-09-30T02:45:37;5.63;;;3.20;;
62574;SDS011;53112;45.602;11.904;2022-09-30T02:48:27;5.30;;;3.10;;
62574;SDS011;53112;45.602;11.904;2022-09-30T02:59:02;5.03;;;3.22;;
62574;SDS011;53112;45.602;11.904;2022-09-30T03:01:29;4.07;;;3.00;;
62574;SDS011;53112;45.602;11.904;2022-09-30T03:03:56;4.00;;;3.15;;
62574;SDS011;53112;45.602;11.904;2022-09-30T03:06:27;4.40;;;3.15;;
62574;SDS011;53112;45.602;11.904;2022-09-30T03:08:53;4.82;;;3.25;;
62574;SDS011;53112;45.602;11.904;2022-09-30T03:11:20;5.50;;;3.90;;
62574;SDS011;53112;45.602;11.904;2022-09-30T03:31:02;5.70;;;3.80;;
62574;SDS011;53112;45.602;11.904;2022-09-30T03:36:49;5.38;;;3.40;;
62574;SDS011;53112;45.602;11.904;2022-09-30T03:42:22;4.88;;;3.03;;
62574;SDS011;53112;45.602;11.904;2022-09-30T03:45:00;3.45;;;2.88;;
62574;SDS011;53112;45.602;11.904;2022-09-30T03:47:34;6.18;;;3.47;;
62574;SDS011;53112;45.602;11.904;2022-09-30T03:50:08;5.00;;;3.17;;
62574;SDS011;53112;45.602;11.904;2022-09-30T03:52:38;5.88;;;3.30;;
62574;SDS011;53112;45.602;11.904;2022-09-30T03:55:05;3.78;;;2.80;;
62574;SDS011;53112;45.602;11.904;2022-09-30T03:57:36;4.93;;;3.35;;
62574;SDS011;53112;45.602;11.904;2022-09-30T04:00:03;4.03;;;3.00;;
62574;SDS011;53112;45.602;11.904;2022-09-30T04:02:31;5.07;;;3.22;;
62574;SDS011;53112;45.602;11.904;2022-09-30T04:05:00;4.15;;;3.22;;
62574;SDS011;53112;45.602;11.904;2022-09-30T04:07:26;4.63;;;3.42;;
62574;SDS011;53112;45.602;11.904;2022-09-30T04:09:51;5.63;;;3.70;;
62574;SDS011;53112;45.602;11.904;2022-09-30T04:12:18;6.15;;;3.80;;
62574;SDS011;53112;45.602;11.904;2022-09-30T04:14:44;6.88;;;4.10;;
62574;SDS011;53112;45.602;11.904;2022-09-30T04:17:10;6.95;;;3.50;;
62574;SDS011;53112;45.602;11.904;2022-09-30T04:19:36;6.93;;;3.50;;
62574;SDS011;53112;45.602;11.904;2022-09-30T04:22:07;5.97;;;3.22;;
62574;SDS011;53112;45.602;11.904;2022-09-30T04:24:33;4.45;;;3.00;;
62574;SDS011;53112;45.602;11.904;2022-09-30T04:27:00;6.80;;;3.92;;
62574;SDS011;53112;45.602;11.904;2022-09-30T04:29:27;5.45;;;3.72;;
62574;SDS011;53112;45.602;11.904;2022-09-30T04:31:53;4.20;;;3.28;;
62574;SDS011;53112;45.602;11.904;2022-09-30T04:34:19;5.55;;;3.45;;
62574;SDS011;53112;45.602;11.904;2022-09-30T04:36:45;5.30;;;3.67;;
62574;SDS011;53112;45.602;11.904;2022-09-30T04:39:11;6.22;;;3.60;;
62574;SDS011;53112;45.602;11.904;2022-09-30T04:41:37;6.20;;;3.63;;
62574;SDS011;53112;45.602;11.904;2022-09-30T04:44:05;5.93;;;3.55;;
62574;SDS011;53112;45.602;11.904;2022-09-30T04:46:33;5.65;;;3.50;;
62574;SDS011;53112;45.602;11.904;2022-09-30T04:49:01;5.90;;;3.90;;
62574;SDS011;53112;45.602;11.904;2022-09-30T04:51:28;5.10;;;3.17;;
62574;SDS011;53112;45.602;11.904;2022-09-30T04:53:54;4.07;;;3.10;;
62574;SDS011;53112;45.602;11.904;2022-09-30T04:56:20;5.45;;;3.30;;
62574;SDS011;53112;45.602;11.904;2022-09-30T04:58:48;4.85;;;3.45;;
62574;SDS011;53112;45.602;11.904;2022-09-30T05:01:15;5.95;;;3.83;;
62574;SDS011;53112;45.602;11.904;2022-09-30T05:03:42;5.93;;;4.40;;
62574;SDS011;53112;45.602;11.904;2022-09-30T05:06:10;7.28;;;4.35;;
62574;SDS011;53112;45.602;11.904;2022-09-30T05:08:37;6.32;;;4.40;;
62574;SDS011;53112;45.602;11.904;2022-09-30T05:11:04;5.97;;;4.25;;
62574;SDS011;53112;45.602;11.904;2022-09-30T05:13:37;5.47;;;4.15;;
62574;SDS011;53112;45.602;11.904;2022-09-30T05:16:05;6.72;;;3.95;;
62574;SDS011;53112;45.602;11.904;2022-09-30T05:18:32;5.47;;;3.83;;
62574;SDS011;53112;45.602;11.904;2022-09-30T05:20:59;4.93;;;3.95;;
62574;SDS011;53112;45.602;11.904;2022-09-30T05:23:26;7.53;;;4.10;;
62574;SDS011;53112;45.602;11.904;2022-09-30T05:25:54;6.13;;;3.65;;
62574;SDS011;53112;45.602;11.904;2022-09-30T05:28:21;5.95;;;3.78;;
62574;SDS011;53112;45.602;11.904;2022-09-30T05:30:47;6.82;;;4.00;;
62574;SDS011;53112;45.602;11.904;2022-09-30T05:33:15;5.05;;;3.97;;
62574;SDS011;53112;45.602;11.904;2022-09-30T05:35:41;6.28;;;4.57;;
62574;SDS011;53112;45.602;11.904;2022-09-30T05:38:08;8.23;;;4.22;;
62574;SDS011;53112;45.602;11.904;2022-09-30T05:40:38;6.28;;;3.88;;
62574;SDS011;53112;45.602;11.904;2022-09-30T05:43:05;7.65;;;4.32;;
62574;SDS011;53112;45.602;11.904;2022-09-30T05:45:32;7.07;;;4.40;;
62574;SDS011;53112;45.602;11.904;2022-09-30T05:47:59;7.22;;;4.65;;
62574;SDS011;53112;45.602;11.904;2022-09-30T05:50:26;6.70;;;4.75;;
62574;SDS011;53112;45.602;11.904;2022-09-30T05:52:52;7.38;;;5.18;;
62574;SDS011;53112;45.602;11.904;2022-09-30T05:55:18;7.50;;;4.90;;
62574;SDS011;53112;45.602;11.904;2022-09-30T05:57:47;6.15;;;4.50;;
62574;SDS011;53112;45.602;11.904;2022-09-30T06:00:14;6.35;;;3.80;;
62574;SDS011;53112;45.602;11.904;2022-09-30T06:02:41;5.93;;;3.60;;
62574;SDS011;53112;45.602;11.904;2022-09-30T06:05:09;4.80;;;3.72;;
62574;SDS011;53112;45.602;11.904;2022-09-30T06:07:37;6.25;;;3.53;;
62574;SDS011;53112;45.602;11.904;2022-09-30T06:10:04;5.57;;;3.30;;
62574;SDS011;53112;45.602;11.904;2022-09-30T06:12:36;5.78;;;3.03;;
62574;SDS011;53112;45.602;11.904;2022-09-30T06:15:04;6.15;;;3.38;;
62574;SDS011;53112;45.602;11.904;2022-09-30T06:17:30;5.13;;;2.90;;
62574;SDS011;53112;45.602;11.904;2022-09-30T06:19:57;5.45;;;3.35;;
62574;SDS011;53112;45.602;11.904;2022-09-30T06:22:23;9.82;;;2.70;;
62574;SDS011;53112;45.602;11.904;2022-09-30T06:24:48;3.83;;;2.65;;
62574;SDS011;53112;45.602;11.904;2022-09-30T06:27:14;7.30;;;2.47;;
62574;SDS011;53112;45.602;11.904;2022-09-30T06:29:40;3.05;;;2.17;;
62574;SDS011;53112;45.602;11.904;2022-09-30T06:32:06;3.45;;;2.00;;
62574;SDS011;53112;45.602;11.904;2022-09-30T06:34:32;3.20;;;2.10;;
62574;SDS011;53112;45.602;11.904;2022-09-30T06:36:58;2.75;;;2.08;;
62574;SDS011;53112;45.602;11.904;2022-09-30T06:39:25;4.30;;;1.88;;
62574;SDS011;53112;45.602;11.904;2022-09-30T06:41:51;1.95;;;1.52;;
62574;SDS011;53112;45.602;11.904;2022-09-30T06:44:17;2.95;;;1.52;;
62574;SDS011;53112;45.602;11.904;2022-09-30T06:46:43;3.42;;;1.70;;
62574;SDS011;53112;45.602;11.904;2022-09-30T06:49:09;2.25;;;1.50;;
62574;SDS011;53112;45.602;11.904;2022-09-30T06:51:35;3.33;;;1.70;;
62574;SDS011;53112;45.602;11.904;2022-09-30T06:54:01;3.78;;;1.63;;
62574;SDS011;53112;45.602;11.904;2022-09-30T06:56:27;2.53;;;1.40;;
62574;SDS011;53112;45.602;11.904;2022-09-30T06:58:54;5.72;;;1.80;;
62574;SDS011;53112;45.602;11.904;2022-09-30T07:01:21;3.95;;;1.75;;
62574;SDS011;53112;45.602;11.904;2022-09-30T07:03:49;2.80;;;1.50;;
62574;SDS011;53112;45.602;11.904;2022-09-30T07:06:22;4.03;;;1.50;;
62574;SDS011;53112;45.602;11.904;2022-09-30T07:08:50;3.95;;;1.65;;
62574;SDS011;53112;45.602;11.904;2022-09-30T07:11:18;2.88;;;1.55;;
62574;SDS011;53112;45.602;11.904;2022-09-30T07:13:44;3.50;;;1.60;;
62574;SDS011;53112;45.602;11.904;2022-09-30T07:16:15;3.45;;;1.65;;
62574;SDS011;53112;45.602;11.904;2022-09-30T07:18:43;2.28;;;1.50;;
62574;SDS011;53112;45.602;11.904;2022-09-30T07:21:10;2.67;;;1.50;;
62574;SDS011;53112;45.602;11.904;2022-09-30T07:23:40;3.20;;;1.70;;
62574;SDS011;53112;45.602;11.904;2022-09-30T07:26:11;1.83;;;1.40;;
62574;SDS011;53112;45.602;11.904;2022-09-30T07:28:41;3.05;;;1.65;;
62574;SDS011;53112;45.602;11.904;2022-09-30T07:31:14;6.88;;;1.70;;
62574;SDS011;53112;45.602;11.904;2022-09-30T07:33:43;3.58;;;1.70;;
62574;SDS011;53112;45.602;11.904;2022-09-30T07:36:10;2.88;;;1.70;;
62574;SDS011;53112;45.602;11.904;2022-09-30T07:38:38;5.68;;;1.88;;
62574;SDS011;53112;45.602;11.904;2022-09-30T07:41:10;3.50;;;1.85;;
62574;SDS011;53112;45.602;11.904;2022-09-30T07:43:39;3.78;;;1.58;;
62574;SDS011;53112;45.602;11.904;2022-09-30T07:48:37;5.65;;;1.80;;
62574;SDS011;53112;45.602;11.904;2022-09-30T07:53:41;3.70;;;2.10;;
62574;SDS011;53112;45.602;11.904;2022-09-30T07:56:09;2.83;;;1.70;;
62574;SDS011;53112;45.602;11.904;2022-09-30T07:58:36;3.13;;;1.67;;
62574;SDS011;53112;45.602;11.904;2022-09-30T08:01:04;2.97;;;1.92;;
62574;SDS011;53112;45.602;11.904;2022-09-30T08:03:34;4.00;;;1.80;;
62574;SDS011;53112;45.602;11.904;2022-09-30T08:06:07;3.67;;;2.00;;
62574;SDS011;53112;45.602;11.904;2022-09-30T08:08:36;5.07;;;2.13;;
62574;SDS011;53112;45.602;11.904;2022-09-30T08:11:03;4.88;;;1.90;;
62574;SDS011;53112;45.602;11.904;2022-09-30T08:13:31;4.82;;;1.67;;
62574;SDS011;53112;45.602;11.904;2022-09-30T08:15:57;5.75;;;1.77;;
62574;SDS011;53112;45.602;11.904;2022-09-30T08:18:23;4.82;;;2.10;;
62574;SDS011;53112;45.602;11.904;2022-09-30T08:20:49;5.15;;;1.75;;
62574;SDS011;53112;45.602;11.904;2022-09-30T08:23:15;6.13;;;1.80;;
62574;SDS011;53112;45.602;11.904;2022-09-30T08:25:41;4.68;;;1.88;;
62574;SDS011;53112;45.602;11.904;2022-09-30T08:28:07;3.72;;;1.80;;
62574;SDS011;53112;45.602;11.904;2022-09-30T08:30:34;5.40;;;1.90;;
62574;SDS011;53112;45.602;11.904;2022-09-30T08:33:01;4.47;;;2.42;;
62574;SDS011;53112;45.602;11.904;2022-09-30T08:35:27;3.95;;;1.90;;
62574;SDS011;53112;45.602;11.904;2022-09-30T08:37:53;5.70;;;2.00;;
62574;SDS011;53112;45.602;11.904;2022-09-30T08:40:23;2.85;;;1.80;;
62574;SDS011;53112;45.602;11.904;2022-09-30T08:42:59;5.20;;;2.00;;
62574;SDS011;53112;45.602;11.904;2022-09-30T08:45:42;3.33;;;1.60;;
62574;SDS011;53112;45.602;11.904;2022-09-30T08:49:21;4.43;;;1.75;;
62574;SDS011;53112;45.602;11.904;2022-09-30T08:51:44;3.78;;;1.67;;
62574;SDS011;53112;45.602;11.904;2022-09-30T08:54:13;4.22;;;2.00;;
62574;SDS011;53112;45.602;11.904;2022-09-30T08:56:43;3.50;;;1.55;;
62574;SDS011;53112;45.602;11.904;2022-09-30T09:02:58;5.25;;;1.95;;
62574;SDS011;53112;45.602;11.904;2022-09-30T09:05:05;3.50;;;1.75;;
62574;SDS011;53112;45.602;11.904;2022-09-30T09:13:11;3.30;;;1.67;;
62574;SDS011;53112;45.602;11.904;2022-09-30T09:24:00;2.40;;;1.60;;
62574;SDS011;53112;45.602;11.904;2022-09-30T09:26:34;5.00;;;1.60;;
62574;SDS011;53112;45.602;11.904;2022-09-30T09:29:10;2.97;;;1.65;;
62574;SDS011;53112;45.602;11.904;2022-09-30T09:31:58;2.00;;;1.80;;
62574;SDS011;53112;45.602;11.904;2022-09-30T09:34:27;1.80;;;1.65;;
62574;SDS011;53112;45.602;11.904;2022-09-30T09:37:02;4.93;;;1.60;;
62574;SDS011;53112;45.602;11.904;2022-09-30T09:42:23;3.28;;;1.60;;
62574;SDS011;53112;45.602;11.904;2022-09-30T09:45:09;4.70;;;1.65;;
62574;SDS011;53112;45.602;11.904;2022-09-30T09:47:57;1.88;;;1.30;;
62574;SDS011;53112;45.602;11.904;2022-09-30T09:51:10;5.28;;;2.55;;
62574;SDS011;53112;45.602;11.904;2022-09-30T09:55:58;3.78;;;1.67;;
62574;SDS011;53112;45.602;11.904;2022-09-30T09:58:24;3.53;;;1.40;;
62574;SDS011;53112;45.602;11.904;2022-09-30T10:00:51;3.72;;;1.90;;
62574;SDS011;53112;45.602;11.904;2022-09-30T10:06:06;3.60;;;1.55;;
62574;SDS011;53112;45.602;11.904;2022-09-30T10:08:37;5.88;;;1.70;;
62574;SDS011;53112;45.602;11.904;2022-09-30T10:11:17;5.32;;;1.67;;
62574;SDS011;53112;45.602;11.904;2022-09-30T10:13:46;2.58;;;1.73;;
62574;SDS011;53112;45.602;11.904;2022-09-30T10:16:25;2.50;;;1.48;;
62574;SDS011;53112;45.602;11.904;2022-09-30T10:18:59;2.97;;;1.60;;
62574;SDS011;53112;45.602;11.904;2022-09-30T10:21:28;4.50;;;1.70;;
62574;SDS011;53112;45.602;11.904;2022-09-30T10:23:54;2.15;;;1.50;;
62574;SDS011;53112;45.602;11.904;2022-09-30T10:26:22;2.83;;;1.60;;
62574;SDS011;53112;45.602;11.904;2022-09-30T10:28:54;3.05;;;1.65;;
62574;SDS011;53112;45.602;11.904;2022-09-30T10:36:32;3.60;;;1.70;;
62574;SDS011;53112;45.602;11.904;2022-09-30T10:41:49;3.63;;;1.50;;
62574;SDS011;53112;45.602;11.904;2022-09-30T10:44:25;2.72;;;1.67;;
62574;SDS011;53112;45.602;11.904;2022-09-30T10:46:52;3.20;;;1.70;;
62574;SDS011;53112;45.602;11.904;2022-09-30T10:49:26;3.72;;;1.80;;
62574;SDS011;53112;45.602;11.904;2022-09-30T10:51:56;3.77;;;1.73;;
62574;SDS011;53112;45.602;11.904;2022-09-30T11:02:45;3.83;;;1.75;;
62574;SDS011;53112;45.602;11.904;2022-09-30T11:05:39;5.38;;;1.60;;
62574;SDS011;53112;45.602;11.904;2022-09-30T11:19:44;5.13;;;1.80;;
62574;SDS011;53112;45.602;11.904;2022-09-30T11:22:03;4.25;;;1.75;;
62574;SDS011;53112;45.602;11.904;2022-09-30T11:24:52;4.13;;;1.77;;
62574;SDS011;53112;45.602;11.904;2022-09-30T11:27:32;2.65;;;1.65;;
62574;SDS011;53112;45.602;11.904;2022-09-30T11:41:24;2.80;;;1.90;;
62574;SDS011;53112;45.602;11.904;2022-09-30T11:55:37;4.63;;;1.70;;
62574;SDS011;53112;45.602;11.904;2022-09-30T11:58:08;4.18;;;1.88;;
62574;SDS011;53112;45.602;11.904;2022-09-30T12:00:39;4.45;;;2.03;;
62574;SDS011;53112;45.602;11.904;2022-09-30T12:05:48;3.25;;;1.88;;
62574;SDS011;53112;45.602;11.904;2022-09-30T12:13:37;3.17;;;1.80;;
62574;SDS011;53112;45.602;11.904;2022-09-30T12:16:21;3.58;;;1.98;;
62574;SDS011;53112;45.602;11.904;2022-09-30T12:18:58;3.78;;;1.83;;
62574;SDS011;53112;45.602;11.904;2022-09-30T12:21:38;1.73;;;1.60;;
62574;SDS011;53112;45.602;11.904;2022-09-30T12:27:02;3.47;;;2.20;;
62574;SDS011;53112;45.602;11.904;2022-09-30T12:29:36;2.53;;;1.92;;
62574;SDS011;53112;45.602;11.904;2022-09-30T12:38:14;4.57;;;2.15;;
62574;SDS011;53112;45.602;11.904;2022-09-30T12:49:41;4.28;;;1.92;;
62574;SDS011;53112;45.602;11.904;2022-09-30T12:52:16;3.58;;;1.98;;
62574;SDS011;53112;45.602;11.904;2022-09-30T12:54:49;4.13;;;1.88;;
62574;SDS011;53112;45.602;11.904;2022-09-30T12:57:26;3.95;;;1.85;;
62574;SDS011;53112;45.602;11.904;2022-09-30T13:00:04;4.18;;;2.00;;
62574;SDS011;53112;45.602;11.904;2022-09-30T13:02:52;3.10;;;2.00;;
62574;SDS011;53112;45.602;11.904;2022-09-30T13:10:31;4.82;;;2.10;;
62574;SDS011;53112;45.602;11.904;2022-09-30T13:15:50;4.25;;;1.90;;
62574;SDS011;53112;45.602;11.904;2022-09-30T13:32:00;4.22;;;1.90;;
62574;SDS011;53112;45.602;11.904;2022-09-30T13:34:11;2.83;;;1.83;;
62574;SDS011;53112;45.602;11.904;2022-09-30T13:44:33;3.40;;;2.13;;
62574;SDS011;53112;45.602;11.904;2022-09-30T13:47:27;3.28;;;2.20;;
62574;SDS011;53112;45.602;11.904;2022-09-30T13:50:03;3.92;;;2.05;;
62574;SDS011;53112;45.602;11.904;2022-09-30T13:52:34;5.47;;;2.15;;
62574;SDS011;53112;45.602;11.904;2022-09-30T13:55:05;3.72;;;2.03;;
62574;SDS011;53112;45.602;11.904;2022-09-30T13:57:45;4.93;;;2.20;;
62574;SDS011;53112;45.602;11.904;2022-09-30T14:00:55;4.40;;;2.05;;
62574;SDS011;53112;45.602;11.904;2022-09-30T14:24:30;5.07;;;2.30;;
62574;SDS011;53112;45.602;11.904;2022-09-30T14:30:04;3.78;;;2.35;;
62574;SDS011;53112;45.602;11.904;2022-09-30T14:32:49;3.90;;;2.30;;
62574;SDS011;53112;45.602;11.904;2022-09-30T14:35:20;5.47;;;2.70;;
62574;SDS011;53112;45.602;11.904;2022-09-30T14:37:58;5.95;;;3.40;;
62574;SDS011;53112;45.602;11.904;2022-09-30T14:40:34;4.88;;;2.90;;
62574;SDS011;53112;45.602;11.904;2022-09-30T14:43:07;5.93;;;2.72;;
62574;SDS011;53112;45.602;11.904;2022-09-30T14:45:42;3.83;;;2.40;;
62574;SDS011;53112;45.602;11.904;2022-09-30T14:48:15;3.65;;;2.30;;
62574;SDS011;53112;45.602;11.904;2022-09-30T14:50:49;6.55;;;2.55;;
62574;SDS011;53112;45.602;11.904;2022-09-30T14:53:27;4.28;;;2.60;;
62574;SDS011;53112;45.602;11.904;2022-09-30T14:55:55;6.07;;;2.90;;
62574;SDS011;53112;45.602;11.904;2022-09-30T14:58:24;4.15;;;2.55;;
62574;SDS011;53112;45.602;11.904;2022-09-30T15:01:00;4.67;;;2.70;;
62574;SDS011;53112;45.602;11.904;2022-09-30T15:03:34;3.90;;;2.70;;
62574;SDS011;53112;45.602;11.904;2022-09-30T15:06:04;4.50;;;2.97;;
62574;SDS011;53112;45.602;11.904;2022-09-30T15:08:40;3.95;;;2.60;;
62574;SDS011;53112;45.602;11.904;2022-09-30T15:11:06;5.63;;;2.90;;
62574;SDS011;53112;45.602;11.904;2022-09-30T15:13:32;5.22;;;2.50;;
62574;SDS011;53112;45.602;11.904;2022-09-30T15:16:00;4.72;;;2.58;;
62574;SDS011;53112;45.602;11.904;2022-09-30T15:18:30;4.47;;;2.63;;
62574;SDS011;53112;45.602;11.904;2022-09-30T15:21:11;4.65;;;2.78;;
62574;SDS011;53112;45.602;11.904;2022-09-30T15:23:49;4.38;;;2.67;;
62574;SDS011;53112;45.602;11.904;2022-09-30T15:26:19;6.53;;;2.95;;
62574;SDS011;53112;45.602;11.904;2022-09-30T15:28:47;7.45;;;3.28;;
62574;SDS011;53112;45.602;11.904;2022-09-30T15:33:45;6.82;;;2.90;;
62574;SDS011;53112;45.602;11.904;2022-09-30T15:36:12;4.90;;;3.10;;
62574;SDS011;53112;45.602;11.904;2022-09-30T15:38:44;5.55;;;3.10;;
62574;SDS011;53112;45.602;11.904;2022-09-30T15:41:14;6.57;;;3.30;;
62574;SDS011;53112;45.602;11.904;2022-09-30T15:43:44;5.30;;;3.30;;
62574;SDS011;53112;45.602;11.904;2022-09-30T15:46:32;4.82;;;3.00;;
62574;SDS011;53112;45.602;11.904;2022-09-30T15:49:02;6.00;;;2.83;;
62574;SDS011;53112;45.602;11.904;2022-09-30T15:51:38;5.45;;;3.10;;
62574;SDS011;53112;45.602;11.904;2022-09-30T15:56:57;5.35;;;2.90;;
62574;SDS011;53112;45.602;11.904;2022-09-30T15:59:55;4.07;;;2.60;;
62574;SDS011;53112;45.602;11.904;2022-09-30T16:02:27;4.07;;;2.90;;
62574;SDS011;53112;45.602;11.904;2022-09-30T16:04:54;4.95;;;2.80;;
62574;SDS011;53112;45.602;11.904;2022-09-30T16:07:22;3.38;;;2.75;;
62574;SDS011;53112;45.602;11.904;2022-09-30T16:09:53;5.18;;;3.10;;
62574;SDS011;53112;45.602;11.904;2022-09-30T16:12:28;4.63;;;2.67;;
62574;SDS011;53112;45.602;11.904;2022-09-30T16:14:58;4.18;;;2.70;;
62574;SDS011;53112;45.602;11.904;2022-09-30T16:17:37;6.32;;;3.13;;
62574;SDS011;53112;45.602;11.904;2022-09-30T16:27:45;5.53;;;3.00;;
62574;SDS011;53112;45.602;11.904;2022-09-30T16:30:14;4.32;;;3.00;;
62574;SDS011;53112;45.602;11.904;2022-09-30T16:32:42;4.40;;;3.20;;
62574;SDS011;53112;45.602;11.904;2022-09-30T16:35:21;5.35;;;2.90;;
62574;SDS011;53112;45.602;11.904;2022-09-30T16:37:49;5.57;;;3.28;;
62574;SDS011;53112;45.602;11.904;2022-09-30T16:40:22;5.22;;;2.90;;
62574;SDS011;53112;45.602;11.904;2022-09-30T16:42:50;5.03;;;3.30;;
62574;SDS011;53112;45.602;11.904;2022-09-30T16:45:19;5.10;;;3.10;;
62574;SDS011;53112;45.602;11.904;2022-09-30T16:47:46;5.45;;;2.92;;
62574;SDS011;53112;45.602;11.904;2022-09-30T16:52:45;4.35;;;2.90;;
62574;SDS011;53112;45.602;11.904;2022-09-30T16:55:11;5.03;;;2.85;;
62574;SDS011;53112;45.602;11.904;2022-09-30T16:57:37;5.03;;;2.50;;
62574;SDS011;53112;45.602;11.904;2022-09-30T17:00:04;4.43;;;3.00;;
62574;SDS011;53112;45.602;11.904;2022-09-30T17:02:31;6.40;;;2.92;;
62574;SDS011;53112;45.602;11.904;2022-09-30T17:04:56;5.13;;;3.22;;
62574;SDS011;53112;45.602;11.904;2022-09-30T17:07:24;6.38;;;3.60;;
62574;SDS011;53112;45.602;11.904;2022-09-30T17:09:50;6.72;;;3.80;;
62574;SDS011;53112;45.602;11.904;2022-09-30T17:12:16;9.45;;;5.07;;
62574;SDS011;53112;45.602;11.904;2022-09-30T17:14:42;8.50;;;5.10;;
62574;SDS011;53112;45.602;11.904;2022-09-30T17:17:09;8.20;;;4.30;;
62574;SDS011;53112;45.602;11.904;2022-09-30T17:19:35;7.68;;;4.40;;
62574;SDS011;53112;45.602;11.904;2022-09-30T17:22:02;7.10;;;4.18;;
62574;SDS011;53112;45.602;11.904;2022-09-30T17:24:29;6.05;;;3.70;;
62574;SDS011;53112;45.602;11.904;2022-09-30T17:26:55;7.13;;;4.30;;
62574;SDS011;53112;45.602;11.904;2022-09-30T17:29:22;6.30;;;3.83;;
62574;SDS011;53112;45.602;11.904;2022-09-30T17:31:49;6.07;;;3.80;;
62574;SDS011;53112;45.602;11.904;2022-09-30T17:34:16;6.70;;;4.28;;
62574;SDS011;53112;45.602;11.904;2022-09-30T17:36:42;7.60;;;4.38;;
62574;SDS011;53112;45.602;11.904;2022-09-30T17:39:08;5.00;;;3.70;;
62574;SDS011;53112;45.602;11.904;2022-09-30T17:41:35;5.78;;;3.85;;
62574;SDS011;53112;45.602;11.904;2022-09-30T17:44:20;5.50;;;3.97;;
62574;SDS011;53112;45.602;11.904;2022-09-30T17:46:46;7.25;;;4.13;;
62574;SDS011;53112;45.602;11.904;2022-09-30T17:49:12;5.53;;;4.03;;
62574;SDS011;53112;45.602;11.904;2022-09-30T17:51:41;5.97;;;3.78;;
62574;SDS011;53112;45.602;11.904;2022-09-30T17:54:07;4.65;;;3.40;;
62574;SDS011;53112;45.602;11.904;2022-09-30T17:56:33;5.45;;;3.50;;
62574;SDS011;53112;45.602;11.904;2022-09-30T17:59:00;5.15;;;3.50;;
62574;SDS011;53112;45.602;11.904;2022-09-30T18:01:27;5.55;;;3.22;;
62574;SDS011;53112;45.602;11.904;2022-09-30T18:03:57;5.40;;;3.70;;
62574;SDS011;53112;45.602;11.904;2022-09-30T18:06:24;4.55;;;3.00;;
62574;SDS011;53112;45.602;11.904;2022-09-30T18:08:52;4.20;;;3.15;;
62574;SDS011;53112;45.602;11.904;2022-09-30T18:11:21;4.72;;;3.50;;
62574;SDS011;53112;45.602;11.904;2022-09-30T18:13:51;4.38;;;3.30;;
62574;SDS011;53112;45.602;11.904;2022-09-30T18:16:22;5.37;;;3.50;;
62574;SDS011;53112;45.602;11.904;2022-09-30T18:18:49;4.28;;;3.35;;
62574;SDS011;53112;45.602;11.904;2022-09-30T18:21:15;5.35;;;3.58;;
62574;SDS011;53112;45.602;11.904;2022-09-30T18:23:41;4.65;;;4.00;;
62574;SDS011;53112;45.602;11.904;2022-09-30T18:26:07;6.18;;;4.57;;
62574;SDS011;53112;45.602;11.904;2022-09-30T18:28:33;5.80;;;4.35;;
62574;SDS011;53112;45.602;11.904;2022-09-30T18:31:05;7.30;;;4.93;;
62574;SDS011;53112;45.602;11.904;2022-09-30T18:33:32;6.13;;;3.97;;
62574;SDS011;53112;45.602;11.904;2022-09-30T18:35:59;6.43;;;3.90;;
62574;SDS011;53112;45.602;11.904;2022-09-30T18:38:26;5.90;;;3.85;;
62574;SDS011;53112;45.602;11.904;2022-09-30T18:40:52;4.22;;;3.30;;
62574;SDS011;53112;45.602;11.904;2022-09-30T18:43:19;6.22;;;3.58;;
62574;SDS011;53112;45.602;11.904;2022-09-30T18:45:51;4.60;;;2.92;;
62574;SDS011;53112;45.602;11.904;2022-09-30T18:48:20;4.40;;;3.20;;
62574;SDS011;53112;45.602;11.904;2022-09-30T18:50:50;4.57;;;3.30;;
62574;SDS011;53112;45.602;11.904;2022-09-30T18:53:21;5.68;;;2.72;;
62574;SDS011;53112;45.602;11.904;2022-09-30T18:55:47;3.65;;;3.00;;
62574;SDS011;53112;45.602;11.904;2022-09-30T18:58:13;5.43;;;2.97;;
62574;SDS011;53112;45.602;11.904;2022-09-30T19:00:42;4.40;;;3.05;;